California City, CA

12:58 PM PDT on July 07, 2015 (GMT -0700)
Northern Cal City (C1684W) | | Change Station
CLOSE
Current Station
Personal Weather Station
Location: California City, CA
Elevation: 2359 ft
Nearby Weather Stations

Elev 2359 ft 35.14 °N, 117.96 °W | Updated 14 seconds ago

Clear
Clear
93.7 °F
Feels Like 89 °F
N
5.8
Wind Variable Wind from SSW
Gusts 7.4 mph

Today
High -- | Low -- °F
--% Chance of Precip.
Yesterday
High -- | Low -- °F
Precip. -- in
5:44 AM 8:09 PM
Waning Gibbous, 62% visible
Pressure 29.96 in
Visibility 10.0 miles
Clouds Clear
Heat Index 89 °F
Dew Point 32 °F
Humidity 11%
Rainfall 0.00 in
Snow Depth Not available.
UV 10.0 out of 12
Pollen 5.20 out of 12
Air Quality Not available.
Flu Activity Not available.
METAR KMHV 071935Z AUTO 20008KT 130V230 10SM CLR 33/M02 A2996 RMK AO1

More Conditions Fewer Conditions

Pressure 29.96 in
Visibility 10.0 miles
Clouds Clear
Heat Index 89 °F
Dew Point 32 °F
Humidity 11%
Rainfall 0.00 in
Snow Depth Not available.
UV 10.0 out of 12
Pollen 5.20 out of 12
Air Quality Not available.
Flu Activity Not available.
METAR KMHV 071935Z AUTO 20008KT 130V230 10SM CLR 33/M02 A2996 RMK AO1

More Conditions Fewer Conditions

10-Day Weather Forecast

×

Almanac

Astronomy

Jul. 07, 2015 Rise Set
Actual Time
Civil Twilight
Nautical Twilight
Astronomical Twilight
Moon
Length of Visible Light
Length of Day
Tomorrow will be .
, % of the Moon is Illuminated

Today's Extremes

State Highs State Lows

Community

WunderPhotos

Upload Photos

1,835,884 photos uploaded!

WunderBlogs® & News

Nearby

Air Quality

  Air Quality AQ Index Pollutant
Not available.

Snow Depth

Station Depth Elevation

Earthquake Activity

City Distance Mag. Time & Date
Minimum magnitude displayed is 2.5.

Coastal Water Temperatures

Place Temperature

Stations

Nearby Weather Stations

Station Location Temp. Windchill Dew Point Humidity Wind Precip. Elev Updated Type